sensor_id;sensor_type;location;lat;lon;timestamp;P1;durP1;ratioP1;P2;durP2;ratioP2
69847;SDS011;57143;55.940;37.496;2023-12-20T00:00:36;2.50;;;0.47;;
69847;SDS011;57143;55.940;37.496;2023-12-20T00:03:04;3.78;;;0.75;;
69847;SDS011;57143;55.940;37.496;2023-12-20T00:05:31;3.38;;;0.70;;
69847;SDS011;57143;55.940;37.496;2023-12-20T00:07:59;3.40;;;0.50;;
69847;SDS011;57143;55.940;37.496;2023-12-20T00:10:26;3.50;;;0.70;;
69847;SDS011;57143;55.940;37.496;2023-12-20T00:12:53;2.90;;;0.50;;
69847;SDS011;57143;55.940;37.496;2023-12-20T00:15:20;4.55;;;0.75;;
69847;SDS011;57143;55.940;37.496;2023-12-20T00:17:49;5.47;;;1.25;;
69847;SDS011;57143;55.940;37.496;2023-12-20T00:20:16;3.35;;;0.57;;
69847;SDS011;57143;55.940;37.496;2023-12-20T00:22:44;3.60;;;0.82;;
69847;SDS011;57143;55.940;37.496;2023-12-20T00:25:11;4.10;;;0.87;;
69847;SDS011;57143;55.940;37.496;2023-12-20T00:27:39;4.57;;;0.80;;
69847;SDS011;57143;55.940;37.496;2023-12-20T00:30:06;3.80;;;0.88;;
69847;SDS011;57143;55.940;37.496;2023-12-20T00:32:35;4.22;;;0.60;;
69847;SDS011;57143;55.940;37.496;2023-12-20T00:35:04;3.33;;;0.60;;
69847;SDS011;57143;55.940;37.496;2023-12-20T00:37:31;3.20;;;0.57;;
69847;SDS011;57143;55.940;37.496;2023-12-20T00:39:59;4.55;;;0.60;;
69847;SDS011;57143;55.940;37.496;2023-12-20T00:42:26;3.55;;;0.88;;
69847;SDS011;57143;55.940;37.496;2023-12-20T00:44:53;3.13;;;0.57;;
69847;SDS011;57143;55.940;37.496;2023-12-20T00:47:20;2.92;;;0.60;;
69847;SDS011;57143;55.940;37.496;2023-12-20T00:49:48;2.60;;;0.60;;
69847;SDS011;57143;55.940;37.496;2023-12-20T00:52:17;2.60;;;0.40;;
69847;SDS011;57143;55.940;37.496;2023-12-20T00:54:45;2.67;;;0.52;;
69847;SDS011;57143;55.940;37.496;2023-12-20T00:57:12;2.42;;;0.50;;
69847;SDS011;57143;55.940;37.496;2023-12-20T00:59:39;3.35;;;0.63;;
69847;SDS011;57143;55.940;37.496;2023-12-20T01:02:07;2.73;;;0.53;;
69847;SDS011;57143;55.940;37.496;2023-12-20T01:04:35;4.32;;;0.60;;
69847;SDS011;57143;55.940;37.496;2023-12-20T01:07:02;3.20;;;0.60;;
69847;SDS011;57143;55.940;37.496;2023-12-20T01:09:31;2.08;;;0.40;;
69847;SDS011;57143;55.940;37.496;2023-12-20T01:11:59;3.47;;;0.60;;
69847;SDS011;57143;55.940;37.496;2023-12-20T01:14:26;3.20;;;0.70;;
69847;SDS011;57143;55.940;37.496;2023-12-20T01:16:53;3.70;;;0.60;;
69847;SDS011;57143;55.940;37.496;2023-12-20T01:19:21;3.65;;;0.70;;
69847;SDS011;57143;55.940;37.496;2023-12-20T01:21:49;4.13;;;0.60;;
69847;SDS011;57143;55.940;37.496;2023-12-20T01:24:16;4.85;;;0.70;;
69847;SDS011;57143;55.940;37.496;2023-12-20T01:26:45;4.13;;;0.60;;
69847;SDS011;57143;55.940;37.496;2023-12-20T01:29:13;3.50;;;0.50;;
69847;SDS011;57143;55.940;37.496;2023-12-20T01:31:41;4.22;;;0.85;;
69847;SDS011;57143;55.940;37.496;2023-12-20T01:34:08;5.30;;;1.10;;
69847;SDS011;57143;55.940;37.496;2023-12-20T01:36:36;4.18;;;0.77;;
69847;SDS011;57143;55.940;37.496;2023-12-20T01:39:03;3.53;;;0.60;;
69847;SDS011;57143;55.940;37.496;2023-12-20T01:41:30;4.60;;;1.15;;
69847;SDS011;57143;55.940;37.496;2023-12-20T01:43:59;4.43;;;1.00;;
69847;SDS011;57143;55.940;37.496;2023-12-20T01:46:27;3.60;;;0.80;;
69847;SDS011;57143;55.940;37.496;2023-12-20T01:48:54;3.15;;;0.60;;
69847;SDS011;57143;55.940;37.496;2023-12-20T01:51:21;4.60;;;0.80;;
69847;SDS011;57143;55.940;37.496;2023-12-20T01:53:49;5.50;;;0.93;;
69847;SDS011;57143;55.940;37.496;2023-12-20T01:56:17;5.45;;;1.20;;
69847;SDS011;57143;55.940;37.496;2023-12-20T01:58:44;5.63;;;0.80;;
69847;SDS011;57143;55.940;37.496;2023-12-20T02:01:15;4.25;;;1.00;;
69847;SDS011;57143;55.940;37.496;2023-12-20T02:03:44;5.40;;;1.00;;
69847;SDS011;57143;55.940;37.496;2023-12-20T02:06:12;4.90;;;0.80;;
69847;SDS011;57143;55.940;37.496;2023-12-20T02:08:40;4.90;;;0.98;;
69847;SDS011;57143;55.940;37.496;2023-12-20T02:11:07;2.35;;;0.52;;
69847;SDS011;57143;55.940;37.496;2023-12-20T02:13:35;6.63;;;1.33;;
69847;SDS011;57143;55.940;37.496;2023-12-20T02:16:01;3.73;;;1.10;;
69847;SDS011;57143;55.940;37.496;2023-12-20T02:18:31;4.70;;;1.30;;
69847;SDS011;57143;55.940;37.496;2023-12-20T02:20:58;5.40;;;1.80;;
69847;SDS011;57143;55.940;37.496;2023-12-20T02:23:27;5.38;;;1.30;;
69847;SDS011;57143;55.940;37.496;2023-12-20T02:25:54;5.15;;;1.23;;
69847;SDS011;57143;55.940;37.496;2023-12-20T02:28:22;4.53;;;1.00;;
69847;SDS011;57143;55.940;37.496;2023-12-20T02:30:49;4.95;;;1.08;;
69847;SDS011;57143;55.940;37.496;2023-12-20T02:33:17;7.18;;;1.38;;
69847;SDS011;57143;55.940;37.496;2023-12-20T02:35:44;4.75;;;1.10;;
69847;SDS011;57143;55.940;37.496;2023-12-20T02:38:11;3.85;;;0.80;;
69847;SDS011;57143;55.940;37.496;2023-12-20T02:40:40;3.70;;;0.90;;
69847;SDS011;57143;55.940;37.496;2023-12-20T02:43:07;4.10;;;0.85;;
69847;SDS011;57143;55.940;37.496;2023-12-20T02:45:35;5.28;;;0.90;;
69847;SDS011;57143;55.940;37.496;2023-12-20T02:48:02;3.13;;;0.63;;
69847;SDS011;57143;55.940;37.496;2023-12-20T02:50:30;3.28;;;0.65;;
69847;SDS011;57143;55.940;37.496;2023-12-20T02:52:57;4.30;;;1.00;;
69847;SDS011;57143;55.940;37.496;2023-12-20T02:55:25;3.10;;;0.60;;
69847;SDS011;57143;55.940;37.496;2023-12-20T02:57:52;6.55;;;0.88;;
69847;SDS011;57143;55.940;37.496;2023-12-20T03:00:20;3.97;;;0.98;;
69847;SDS011;57143;55.940;37.496;2023-12-20T03:02:47;5.30;;;0.75;;
69847;SDS011;57143;55.940;37.496;2023-12-20T03:05:14;4.70;;;1.10;;
69847;SDS011;57143;55.940;37.496;2023-12-20T03:07:42;4.85;;;0.80;;
69847;SDS011;57143;55.940;37.496;2023-12-20T03:10:09;6.25;;;1.40;;
69847;SDS011;57143;55.940;37.496;2023-12-20T03:12:36;5.22;;;0.90;;
69847;SDS011;57143;55.940;37.496;2023-12-20T03:15:05;4.90;;;1.00;;
69847;SDS011;57143;55.940;37.496;2023-12-20T03:17:33;3.47;;;0.77;;
69847;SDS011;57143;55.940;37.496;2023-12-20T03:20:00;3.63;;;0.77;;
69847;SDS011;57143;55.940;37.496;2023-12-20T03:22:30;6.13;;;1.33;;
69847;SDS011;57143;55.940;37.496;2023-12-20T03:24:57;6.25;;;1.10;;
69847;SDS011;57143;55.940;37.496;2023-12-20T03:27:24;5.97;;;1.15;;
69847;SDS011;57143;55.940;37.496;2023-12-20T03:29:51;4.00;;;1.03;;
69847;SDS011;57143;55.940;37.496;2023-12-20T03:32:20;5.88;;;1.10;;
69847;SDS011;57143;55.940;37.496;2023-12-20T03:34:48;4.78;;;1.30;;
69847;SDS011;57143;55.940;37.496;2023-12-20T03:37:15;5.68;;;1.50;;
69847;SDS011;57143;55.940;37.496;2023-12-20T03:39:42;3.67;;;0.90;;
69847;SDS011;57143;55.940;37.496;2023-12-20T03:42:09;5.13;;;1.47;;
69847;SDS011;57143;55.940;37.496;2023-12-20T03:44:38;5.72;;;0.85;;
69847;SDS011;57143;55.940;37.496;2023-12-20T03:47:06;4.10;;;0.95;;
69847;SDS011;57143;55.940;37.496;2023-12-20T03:49:34;4.55;;;0.93;;
69847;SDS011;57143;55.940;37.496;2023-12-20T03:52:04;3.95;;;1.15;;
69847;SDS011;57143;55.940;37.496;2023-12-20T03:54:31;4.27;;;1.03;;
69847;SDS011;57143;55.940;37.496;2023-12-20T03:56:59;4.63;;;0.90;;
69847;SDS011;57143;55.940;37.496;2023-12-20T03:59:27;4.85;;;1.33;;
69847;SDS011;57143;55.940;37.496;2023-12-20T04:01:54;4.00;;;1.05;;
69847;SDS011;57143;55.940;37.496;2023-12-20T04:04:21;4.68;;;0.90;;
69847;SDS011;57143;55.940;37.496;2023-12-20T04:06:50;6.70;;;1.20;;
69847;SDS011;57143;55.940;37.496;2023-12-20T04:09:18;5.68;;;1.52;;
69847;SDS011;57143;55.940;37.496;2023-12-20T04:11:45;5.13;;;1.40;;
69847;SDS011;57143;55.940;37.496;2023-12-20T04:14:12;5.57;;;1.08;;
69847;SDS011;57143;55.940;37.496;2023-12-20T04:16:39;7.80;;;1.63;;
69847;SDS011;57143;55.940;37.496;2023-12-20T04:19:08;6.97;;;1.23;;
69847;SDS011;57143;55.940;37.496;2023-12-20T04:21:35;6.18;;;1.50;;
69847;SDS011;57143;55.940;37.496;2023-12-20T04:24:04;6.55;;;1.70;;
69847;SDS011;57143;55.940;37.496;2023-12-20T04:26:32;7.03;;;1.63;;
69847;SDS011;57143;55.940;37.496;2023-12-20T04:28:59;9.23;;;1.48;;
69847;SDS011;57143;55.940;37.496;2023-12-20T04:31:26;5.40;;;1.60;;
69847;SDS011;57143;55.940;37.496;2023-12-20T04:33:54;5.90;;;1.30;;
69847;SDS011;57143;55.940;37.496;2023-12-20T04:36:21;9.10;;;2.25;;
69847;SDS011;57143;55.940;37.496;2023-12-20T04:38:50;5.55;;;1.33;;
69847;SDS011;57143;55.940;37.496;2023-12-20T04:41:19;4.30;;;1.20;;
69847;SDS011;57143;55.940;37.496;2023-12-20T04:43:46;5.73;;;1.07;;
69847;SDS011;57143;55.940;37.496;2023-12-20T04:46:13;4.22;;;0.90;;
69847;SDS011;57143;55.940;37.496;2023-12-20T04:48:41;4.35;;;1.17;;
69847;SDS011;57143;55.940;37.496;2023-12-20T04:51:08;4.10;;;1.10;;
69847;SDS011;57143;55.940;37.496;2023-12-20T04:53:35;6.47;;;1.13;;
69847;SDS011;57143;55.940;37.496;2023-12-20T04:56:02;2.43;;;0.50;;
69847;SDS011;57143;55.940;37.496;2023-12-20T04:58:32;7.00;;;0.93;;
69847;SDS011;57143;55.940;37.496;2023-12-20T05:00:59;3.90;;;0.90;;
69847;SDS011;57143;55.940;37.496;2023-12-20T05:03:27;5.07;;;0.93;;
69847;SDS011;57143;55.940;37.496;2023-12-20T05:05:54;3.97;;;0.75;;
69847;SDS011;57143;55.940;37.496;2023-12-20T05:08:22;4.03;;;0.80;;
69847;SDS011;57143;55.940;37.496;2023-12-20T05:10:50;5.65;;;0.82;;
69847;SDS011;57143;55.940;37.496;2023-12-20T05:13:18;5.03;;;0.80;;
69847;SDS011;57143;55.940;37.496;2023-12-20T05:15:46;4.05;;;0.90;;
69847;SDS011;57143;55.940;37.496;2023-12-20T05:18:14;6.28;;;1.13;;
69847;SDS011;57143;55.940;37.496;2023-12-20T05:20:41;4.27;;;0.77;;
69847;SDS011;57143;55.940;37.496;2023-12-20T05:23:08;5.85;;;1.00;;
69847;SDS011;57143;55.940;37.496;2023-12-20T05:25:37;3.38;;;0.90;;
69847;SDS011;57143;55.940;37.496;2023-12-20T05:28:04;4.88;;;0.80;;
69847;SDS011;57143;55.940;37.496;2023-12-20T05:30:32;5.70;;;0.80;;
69847;SDS011;57143;55.940;37.496;2023-12-20T05:33:00;3.00;;;0.73;;
69847;SDS011;57143;55.940;37.496;2023-12-20T05:35:28;4.63;;;0.80;;
69847;SDS011;57143;55.940;37.496;2023-12-20T05:37:55;5.45;;;1.27;;
69847;SDS011;57143;55.940;37.496;2023-12-20T05:40:22;6.40;;;0.90;;
69847;SDS011;57143;55.940;37.496;2023-12-20T05:42:50;4.60;;;0.90;;
69847;SDS011;57143;55.940;37.496;2023-12-20T05:45:17;4.50;;;0.90;;
69847;SDS011;57143;55.940;37.496;2023-12-20T05:47:44;4.43;;;1.05;;
69847;SDS011;57143;55.940;37.496;2023-12-20T05:50:13;3.90;;;0.90;;
69847;SDS011;57143;55.940;37.496;2023-12-20T05:52:41;2.75;;;0.55;;
69847;SDS011;57143;55.940;37.496;2023-12-20T05:55:09;5.40;;;0.80;;
69847;SDS011;57143;55.940;37.496;2023-12-20T05:57:36;3.03;;;0.57;;
69847;SDS011;57143;55.940;37.496;2023-12-20T06:00:04;5.72;;;1.10;;
69847;SDS011;57143;55.940;37.496;2023-12-20T06:02:31;3.72;;;0.95;;
69847;SDS011;57143;55.940;37.496;2023-12-20T06:04:59;5.07;;;0.80;;
69847;SDS011;57143;55.940;37.496;2023-12-20T06:07:30;4.47;;;0.85;;
69847;SDS011;57143;55.940;37.496;2023-12-20T06:09:57;9.53;;;1.17;;
69847;SDS011;57143;55.940;37.496;2023-12-20T06:12:25;5.07;;;1.00;;
69847;SDS011;57143;55.940;37.496;2023-12-20T06:14:53;5.07;;;1.10;;
69847;SDS011;57143;55.940;37.496;2023-12-20T06:17:20;5.53;;;1.30;;
69847;SDS011;57143;55.940;37.496;2023-12-20T06:19:47;5.18;;;1.10;;
69847;SDS011;57143;55.940;37.496;2023-12-20T06:22:15;2.67;;;0.63;;
69847;SDS011;57143;55.940;37.496;2023-12-20T06:24:44;4.82;;;1.10;;
69847;SDS011;57143;55.940;37.496;2023-12-20T06:27:11;5.93;;;1.35;;
69847;SDS011;57143;55.940;37.496;2023-12-20T06:29:38;5.15;;;1.15;;
69847;SDS011;57143;55.940;37.496;2023-12-20T06:32:06;7.68;;;1.27;;
69847;SDS011;57143;55.940;37.496;2023-12-20T06:34:35;5.17;;;1.40;;
69847;SDS011;57143;55.940;37.496;2023-12-20T06:37:03;5.50;;;1.45;;
69847;SDS011;57143;55.940;37.496;2023-12-20T06:39:31;6.13;;;1.65;;
69847;SDS011;57143;55.940;37.496;2023-12-20T06:42:00;5.60;;;1.65;;
69847;SDS011;57143;55.940;37.496;2023-12-20T06:44:28;6.32;;;2.13;;
69847;SDS011;57143;55.940;37.496;2023-12-20T06:46:55;8.80;;;2.30;;
69847;SDS011;57143;55.940;37.496;2023-12-20T06:49:22;6.13;;;1.63;;
69847;SDS011;57143;55.940;37.496;2023-12-20T06:51:50;6.05;;;1.65;;
69847;SDS011;57143;55.940;37.496;2023-12-20T06:54:18;4.32;;;1.15;;
69847;SDS011;57143;55.940;37.496;2023-12-20T06:56:45;6.03;;;1.17;;
69847;SDS011;57143;55.940;37.496;2023-12-20T06:59:14;6.20;;;1.70;;
69847;SDS011;57143;55.940;37.496;2023-12-20T07:01:42;9.60;;;1.65;;
69847;SDS011;57143;55.940;37.496;2023-12-20T07:04:09;7.55;;;1.73;;
69847;SDS011;57143;55.940;37.496;2023-12-20T07:06:36;6.13;;;1.52;;
69847;SDS011;57143;55.940;37.496;2023-12-20T07:09:04;5.28;;;1.00;;
69847;SDS011;57143;55.940;37.496;2023-12-20T07:11:31;5.93;;;1.80;;
69847;SDS011;57143;55.940;37.496;2023-12-20T07:13:59;6.30;;;1.63;;
69847;SDS011;57143;55.940;37.496;2023-12-20T07:16:28;5.90;;;1.73;;
69847;SDS011;57143;55.940;37.496;2023-12-20T07:18:55;4.88;;;1.30;;
69847;SDS011;57143;55.940;37.496;2023-12-20T07:21:22;12.88;;;2.28;;
69847;SDS011;57143;55.940;37.496;2023-12-20T07:23:50;5.53;;;1.40;;
69847;SDS011;57143;55.940;37.496;2023-12-20T07:26:17;9.13;;;1.65;;
69847;SDS011;57143;55.940;37.496;2023-12-20T07:28:45;3.83;;;1.10;;
69847;SDS011;57143;55.940;37.496;2023-12-20T07:31:12;6.28;;;1.63;;
69847;SDS011;57143;55.940;37.496;2023-12-20T07:33:43;6.53;;;2.00;;
69847;SDS011;57143;55.940;37.496;2023-12-20T07:36:10;5.93;;;1.80;;
69847;SDS011;57143;55.940;37.496;2023-12-20T07:38:39;6.20;;;1.70;;
69847;SDS011;57143;55.940;37.496;2023-12-20T07:41:09;6.55;;;1.42;;
69847;SDS011;57143;55.940;37.496;2023-12-20T07:43:36;6.07;;;1.38;;
69847;SDS011;57143;55.940;37.496;2023-12-20T07:46:04;8.23;;;2.55;;
69847;SDS011;57143;55.940;37.496;2023-12-20T07:48:32;7.03;;;1.50;;
69847;SDS011;57143;55.940;37.496;2023-12-20T07:50:59;5.32;;;1.42;;
69847;SDS011;57143;55.940;37.496;2023-12-20T07:53:27;5.00;;;1.20;;
69847;SDS011;57143;55.940;37.496;2023-12-20T07:55:54;5.28;;;1.50;;
69847;SDS011;57143;55.940;37.496;2023-12-20T07:58:22;6.25;;;1.17;;
69847;SDS011;57143;55.940;37.496;2023-12-20T08:00:49;6.83;;;1.07;;
69847;SDS011;57143;55.940;37.496;2023-12-20T08:03:17;5.72;;;1.33;;
69847;SDS011;57143;55.940;37.496;2023-12-20T08:05:44;4.95;;;1.35;;
69847;SDS011;57143;55.940;37.496;2023-12-20T08:08:13;4.40;;;1.10;;
69847;SDS011;57143;55.940;37.496;2023-12-20T08:10:40;8.80;;;1.52;;
69847;SDS011;57143;55.940;37.496;2023-12-20T08:13:07;6.00;;;1.10;;
69847;SDS011;57143;55.940;37.496;2023-12-20T08:15:35;5.32;;;1.02;;
69847;SDS011;57143;55.940;37.496;2023-12-20T08:18:03;5.43;;;1.30;;
69847;SDS011;57143;55.940;37.496;2023-12-20T08:20:31;6.43;;;1.67;;
69847;SDS011;57143;55.940;37.496;2023-12-20T08:22:58;9.23;;;1.23;;
69847;SDS011;57143;55.940;37.496;2023-12-20T08:25:27;4.00;;;0.70;;
69847;SDS011;57143;55.940;37.496;2023-12-20T08:28:00;3.17;;;0.75;;
69847;SDS011;57143;55.940;37.496;2023-12-20T08:30:28;3.08;;;0.70;;
69847;SDS011;57143;55.940;37.496;2023-12-20T08:32:56;6.97;;;1.40;;
69847;SDS011;57143;55.940;37.496;2023-12-20T08:35:26;4.15;;;1.42;;
69847;SDS011;57143;55.940;37.496;2023-12-20T08:37:53;5.83;;;0.87;;
69847;SDS011;57143;55.940;37.496;2023-12-20T08:40:21;4.10;;;0.93;;
69847;SDS011;57143;55.940;37.496;2023-12-20T08:42:50;4.18;;;0.85;;
69847;SDS011;57143;55.940;37.496;2023-12-20T08:45:17;5.25;;;0.82;;
69847;SDS011;57143;55.940;37.496;2023-12-20T08:47:45;4.95;;;1.08;;
69847;SDS011;57143;55.940;37.496;2023-12-20T08:50:12;4.90;;;1.10;;
69847;SDS011;57143;55.940;37.496;2023-12-20T08:52:40;6.20;;;1.10;;
69847;SDS011;57143;55.940;37.496;2023-12-20T08:55:08;5.13;;;1.40;;
69847;SDS011;57143;55.940;37.496;2023-12-20T08:57:36;5.20;;;0.63;;
69847;SDS011;57143;55.940;37.496;2023-12-20T09:00:06;5.55;;;1.30;;
69847;SDS011;57143;55.940;37.496;2023-12-20T09:02:34;5.87;;;1.23;;
69847;SDS011;57143;55.940;37.496;2023-12-20T09:05:03;4.53;;;1.20;;
69847;SDS011;57143;55.940;37.496;2023-12-20T09:07:31;5.60;;;1.50;;
69847;SDS011;57143;55.940;37.496;2023-12-20T09:09:58;10.50;;;1.17;;
69847;SDS011;57143;55.940;37.496;2023-12-20T09:12:26;6.68;;;1.50;;
69847;SDS011;57143;55.940;37.496;2023-12-20T09:14:54;4.80;;;1.00;;
69847;SDS011;57143;55.940;37.496;2023-12-20T09:17:23;5.70;;;1.50;;
69847;SDS011;57143;55.940;37.496;2023-12-20T09:19:50;7.45;;;1.60;;
69847;SDS011;57143;55.940;37.496;2023-12-20T09:22:19;6.10;;;1.50;;
69847;SDS011;57143;55.940;37.496;2023-12-20T09:24:46;5.00;;;1.27;;
69847;SDS011;57143;55.940;37.496;2023-12-20T09:27:14;5.60;;;1.13;;
69847;SDS011;57143;55.940;37.496;2023-12-20T09:29:41;8.05;;;1.55;;
69847;SDS011;57143;55.940;37.496;2023-12-20T09:32:09;5.13;;;1.60;;
69847;SDS011;57143;55.940;37.496;2023-12-20T09:34:37;5.57;;;1.75;;
69847;SDS011;57143;55.940;37.496;2023-12-20T09:37:05;7.88;;;1.95;;
69847;SDS011;57143;55.940;37.496;2023-12-20T09:39:33;9.63;;;2.20;;
69847;SDS011;57143;55.940;37.496;2023-12-20T09:42:01;8.60;;;2.30;;
69847;SDS011;57143;55.940;37.496;2023-12-20T09:44:29;8.23;;;2.35;;
69847;SDS011;57143;55.940;37.496;2023-12-20T09:46:58;6.35;;;2.20;;
69847;SDS011;57143;55.940;37.496;2023-12-20T09:49:28;6.80;;;2.03;;
69847;SDS011;57143;55.940;37.496;2023-12-20T09:51:58;6.77;;;2.10;;
69847;SDS011;57143;55.940;37.496;2023-12-20T09:54:28;8.35;;;2.10;;
69847;SDS011;57143;55.940;37.496;2023-12-20T09:56:56;8.05;;;2.50;;
69847;SDS011;57143;55.940;37.496;2023-12-20T09:59:23;6.05;;;1.77;;
69847;SDS011;57143;55.940;37.496;2023-12-20T10:01:50;6.72;;;1.83;;
69847;SDS011;57143;55.940;37.496;2023-12-20T10:04:22;5.97;;;1.77;;
69847;SDS011;57143;55.940;37.496;2023-12-20T10:06:51;7.45;;;2.28;;
69847;SDS011;57143;55.940;37.496;2023-12-20T10:09:20;7.15;;;2.05;;
69847;SDS011;57143;55.940;37.496;2023-12-20T10:11:47;5.85;;;1.50;;
69847;SDS011;57143;55.940;37.496;2023-12-20T10:14:14;3.92;;;1.10;;
69847;SDS011;57143;55.940;37.496;2023-12-20T10:16:44;6.37;;;1.83;;
69847;SDS011;57143;55.940;37.496;2023-12-20T10:19:11;5.65;;;1.52;;
69847;SDS011;57143;55.940;37.496;2023-12-20T10:21:38;5.55;;;1.75;;
69847;SDS011;57143;55.940;37.496;2023-12-20T10:24:08;5.88;;;1.52;;
69847;SDS011;57143;55.940;37.496;2023-12-20T10:26:37;5.07;;;1.20;;
69847;SDS011;57143;55.940;37.496;2023-12-20T10:29:05;6.53;;;1.23;;
69847;SDS011;57143;55.940;37.496;2023-12-20T10:31:32;5.70;;;1.52;;
69847;SDS011;57143;55.940;37.496;2023-12-20T10:34:02;4.85;;;1.20;;
69847;SDS011;57143;55.940;37.496;2023-12-20T10:36:30;4.90;;;1.15;;
69847;SDS011;57143;55.940;37.496;2023-12-20T10:38:58;6.43;;;1.15;;
69847;SDS011;57143;55.940;37.496;2023-12-20T10:41:27;5.87;;;1.37;;
69847;SDS011;57143;55.940;37.496;2023-12-20T10:43:58;6.43;;;1.30;;
69847;SDS011;57143;55.940;37.496;2023-12-20T10:46:27;5.53;;;1.23;;
69847;SDS011;57143;55.940;37.496;2023-12-20T10:48:55;5.80;;;1.23;;
69847;SDS011;57143;55.940;37.496;2023-12-20T10:51:23;4.70;;;1.17;;
69847;SDS011;57143;55.940;37.496;2023-12-20T10:53:52;4.63;;;1.03;;
69847;SDS011;57143;55.940;37.496;2023-12-20T10:56:20;6.65;;;1.50;;
69847;SDS011;57143;55.940;37.496;2023-12-20T10:58:49;4.97;;;1.30;;
69847;SDS011;57143;55.940;37.496;2023-12-20T11:01:18;4.50;;;1.20;;
69847;SDS011;57143;55.940;37.496;2023-12-20T11:03:48;7.45;;;1.65;;
69847;SDS011;57143;55.940;37.496;2023-12-20T11:06:25;4.80;;;1.30;;
69847;SDS011;57143;55.940;37.496;2023-12-20T11:08:58;6.53;;;1.73;;
69847;SDS011;57143;55.940;37.496;2023-12-20T11:11:40;4.50;;;1.30;;
69847;SDS011;57143;55.940;37.496;2023-12-20T11:14:20;7.00;;;1.80;;
69847;SDS011;57143;55.940;37.496;2023-12-20T11:17:06;6.60;;;1.55;;
69847;SDS011;57143;55.940;37.496;2023-12-20T11:19:35;4.37;;;1.30;;
69847;SDS011;57143;55.940;37.496;2023-12-20T11:22:04;6.00;;;1.73;;
69847;SDS011;57143;55.940;37.496;2023-12-20T11:24:33;4.30;;;1.10;;
69847;SDS011;57143;55.940;37.496;2023-12-20T11:27:03;4.28;;;1.05;;
69847;SDS011;57143;55.940;37.496;2023-12-20T11:29:31;4.72;;;1.20;;
69847;SDS011;57143;55.940;37.496;2023-12-20T11:32:00;4.67;;;1.10;;
69847;SDS011;57143;55.940;37.496;2023-12-20T11:34:32;4.55;;;1.23;;
69847;SDS011;57143;55.940;37.496;2023-12-20T11:37:02;4.20;;;1.15;;
69847;SDS011;57143;55.940;37.496;2023-12-20T11:39:30;5.75;;;1.10;;
69847;SDS011;57143;55.940;37.496;2023-12-20T11:41:58;6.15;;;1.20;;
69847;SDS011;57143;55.940;37.496;2023-12-20T11:44:32;4.03;;;0.70;;
69847;SDS011;57143;55.940;37.496;2023-12-20T11:47:00;7.38;;;1.38;;
69847;SDS011;57143;55.940;37.496;2023-12-20T11:49:27;5.13;;;1.27;;
69847;SDS011;57143;55.940;37.496;2023-12-20T11:51:57;3.90;;;1.00;;
69847;SDS011;57143;55.940;37.496;2023-12-20T11:54:25;4.72;;;1.17;;
69847;SDS011;57143;55.940;37.496;2023-12-20T11:56:53;4.93;;;1.13;;
69847;SDS011;57143;55.940;37.496;2023-12-20T11:59:20;4.68;;;1.00;;
69847;SDS011;57143;55.940;37.496;2023-12-20T12:01:48;4.00;;;0.63;;
69847;SDS011;57143;55.940;37.496;2023-12-20T12:04:16;8.50;;;0.90;;
69847;SDS011;57143;55.940;37.496;2023-12-20T12:06:44;4.07;;;0.80;;
69847;SDS011;57143;55.940;37.496;2023-12-20T12:09:13;5.13;;;1.07;;
69847;SDS011;57143;55.940;37.496;2023-12-20T12:11:41;5.57;;;1.00;;
69847;SDS011;57143;55.940;37.496;2023-12-20T12:14:09;5.13;;;1.00;;
69847;SDS011;57143;55.940;37.496;2023-12-20T12:16:37;5.85;;;1.30;;
69847;SDS011;57143;55.940;37.496;2023-12-20T12:19:04;5.03;;;1.05;;
69847;SDS011;57143;55.940;37.496;2023-12-20T12:21:32;4.10;;;1.00;;
69847;SDS011;57143;55.940;37.496;2023-12-20T12:24:08;3.88;;;0.90;;
69847;SDS011;57143;55.940;37.496;2023-12-20T12:26:37;4.47;;;1.08;;
69847;SDS011;57143;55.940;37.496;2023-12-20T12:29:09;4.63;;;1.00;;
69847;SDS011;57143;55.940;37.496;2023-12-20T12:31:36;4.13;;;0.90;;
69847;SDS011;57143;55.940;37.496;2023-12-20T12:34:03;3.80;;;0.80;;
69847;SDS011;57143;55.940;37.496;2023-12-20T12:36:31;3.75;;;0.80;;
69847;SDS011;57143;55.940;37.496;2023-12-20T12:39:01;4.90;;;0.90;;
69847;SDS011;57143;55.940;37.496;2023-12-20T12:41:29;4.28;;;1.10;;
69847;SDS011;57143;55.940;37.496;2023-12-20T12:43:58;5.15;;;1.20;;
69847;SDS011;57143;55.940;37.496;2023-12-20T12:46:25;5.30;;;0.77;;
69847;SDS011;57143;55.940;37.496;2023-12-20T12:48:53;4.03;;;0.90;;
69847;SDS011;57143;55.940;37.496;2023-12-20T12:51:20;6.85;;;1.38;;
69847;SDS011;57143;55.940;37.496;2023-12-20T12:53:48;4.10;;;0.90;;
69847;SDS011;57143;55.940;37.496;2023-12-20T12:56:15;4.93;;;0.90;;
69847;SDS011;57143;55.940;37.496;2023-12-20T12:58:43;4.27;;;0.80;;
69847;SDS011;57143;55.940;37.496;2023-12-20T13:01:12;4.32;;;1.05;;
69847;SDS011;57143;55.940;37.496;2023-12-20T13:03:40;4.28;;;0.90;;
69847;SDS011;57143;55.940;37.496;2023-12-20T13:06:07;5.10;;;1.08;;
69847;SDS011;57143;55.940;37.496;2023-12-20T13:08:34;5.57;;;0.80;;
69847;SDS011;57143;55.940;37.496;2023-12-20T13:11:02;4.27;;;0.80;;
69847;SDS011;57143;55.940;37.496;2023-12-20T13:13:30;3.90;;;0.80;;
69847;SDS011;57143;55.940;37.496;2023-12-20T13:15:57;5.40;;;1.10;;
69847;SDS011;57143;55.940;37.496;2023-12-20T13:18:27;4.43;;;0.80;;
69847;SDS011;57143;55.940;37.496;2023-12-20T13:20:56;4.53;;;0.80;;
69847;SDS011;57143;55.940;37.496;2023-12-20T13:23:23;4.27;;;0.73;;
69847;SDS011;57143;55.940;37.496;2023-12-20T13:25:51;4.55;;;0.93;;
69847;SDS011;57143;55.940;37.496;2023-12-20T13:28:18;5.00;;;0.80;;
69847;SDS011;57143;55.940;37.496;2023-12-20T13:30:45;4.35;;;0.77;;
69847;SDS011;57143;55.940;37.496;2023-12-20T13:33:12;8.98;;;1.05;;
69847;SDS011;57143;55.940;37.496;2023-12-20T13:35:41;4.27;;;0.90;;
69847;SDS011;57143;55.940;37.496;2023-12-20T13:38:09;3.40;;;0.60;;
69847;SDS011;57143;55.940;37.496;2023-12-20T13:40:36;6.22;;;1.00;;
69847;SDS011;57143;55.940;37.496;2023-12-20T13:43:04;5.55;;;0.80;;
69847;SDS011;57143;55.940;37.496;2023-12-20T13:45:31;4.30;;;1.05;;
69847;SDS011;57143;55.940;37.496;2023-12-20T13:47:58;5.47;;;0.90;;
69847;SDS011;57143;55.940;37.496;2023-12-20T13:50:26;6.25;;;1.13;;
69847;SDS011;57143;55.940;37.496;2023-12-20T13:52:55;6.28;;;1.13;;
69847;SDS011;57143;55.940;37.496;2023-12-20T13:55:22;4.82;;;0.90;;
69847;SDS011;57143;55.940;37.496;2023-12-20T13:57:50;4.82;;;1.05;;
69847;SDS011;57143;55.940;37.496;2023-12-20T14:00:18;6.93;;;1.43;;
69847;SDS011;57143;55.940;37.496;2023-12-20T14:02:45;7.18;;;1.33;;
69847;SDS011;57143;55.940;37.496;2023-12-20T14:05:13;6.00;;;1.30;;
69847;SDS011;57143;55.940;37.496;2023-12-20T14:07:42;4.88;;;1.17;;
69847;SDS011;57143;55.940;37.496;2023-12-20T14:10:12;4.07;;;0.80;;
69847;SDS011;57143;55.940;37.496;2023-12-20T14:12:40;5.13;;;1.03;;
69847;SDS011;57143;55.940;37.496;2023-12-20T14:15:09;5.72;;;1.20;;
69847;SDS011;57143;55.940;37.496;2023-12-20T14:17:38;4.40;;;0.93;;
69847;SDS011;57143;55.940;37.496;2023-12-20T14:20:06;6.50;;;1.10;;
69847;SDS011;57143;55.940;37.496;2023-12-20T14:22:34;3.90;;;0.73;;
69847;SDS011;57143;55.940;37.496;2023-12-20T14:25:03;5.57;;;0.83;;
69847;SDS011;57143;55.940;37.496;2023-12-20T14:27:33;4.97;;;1.00;;
69847;SDS011;57143;55.940;37.496;2023-12-20T14:30:00;4.60;;;1.20;;
69847;SDS011;57143;55.940;37.496;2023-12-20T14:32:30;5.38;;;1.13;;
69847;SDS011;57143;55.940;37.496;2023-12-20T14:34:58;5.53;;;1.00;;
69847;SDS011;57143;55.940;37.496;2023-12-20T14:37:25;5.23;;;0.93;;